sensor_id;sensor_type;location;lat;lon;timestamp;P1;durP1;ratioP1;P2;durP2;ratioP2
19257;SDS011;9763;48.780;9.212;2023-02-15T00:03:00;10.73;;;8.43;;
19257;SDS011;9763;48.780;9.212;2023-02-15T00:06:24;10.20;;;8.67;;
19257;SDS011;9763;48.780;9.212;2023-02-15T00:09:48;9.20;;;7.80;;
19257;SDS011;9763;48.780;9.212;2023-02-15T00:13:13;11.00;;;8.23;;
19257;SDS011;9763;48.780;9.212;2023-02-15T00:16:37;10.90;;;7.63;;
19257;SDS011;9763;48.780;9.212;2023-02-15T00:20:02;9.00;;;7.73;;
19257;SDS011;9763;48.780;9.212;2023-02-15T00:23:26;8.83;;;7.90;;
19257;SDS011;9763;48.780;9.212;2023-02-15T00:26:50;9.20;;;7.90;;
19257;SDS011;9763;48.780;9.212;2023-02-15T00:30:15;13.60;;;9.23;;
19257;SDS011;9763;48.780;9.212;2023-02-15T00:33:39;9.80;;;8.10;;
19257;SDS011;9763;48.780;9.212;2023-02-15T00:37:03;11.80;;;9.27;;
19257;SDS011;9763;48.780;9.212;2023-02-15T00:40:27;11.30;;;9.10;;
19257;SDS011;9763;48.780;9.212;2023-02-15T00:43:51;10.40;;;8.60;;
19257;SDS011;9763;48.780;9.212;2023-02-15T00:47:16;10.90;;;7.73;;
19257;SDS011;9763;48.780;9.212;2023-02-15T00:50:40;7.53;;;6.67;;
19257;SDS011;9763;48.780;9.212;2023-02-15T00:54:04;8.50;;;7.60;;
19257;SDS011;9763;48.780;9.212;2023-02-15T00:57:28;9.37;;;6.93;;
19257;SDS011;9763;48.780;9.212;2023-02-15T01:00:52;6.40;;;4.90;;
19257;SDS011;9763;48.780;9.212;2023-02-15T01:04:20;8.70;;;7.80;;
19257;SDS011;9763;48.780;9.212;2023-02-15T01:07:45;8.40;;;7.30;;
19257;SDS011;9763;48.780;9.212;2023-02-15T01:11:11;7.80;;;6.80;;
19257;SDS011;9763;48.780;9.212;2023-02-15T01:14:46;7.87;;;7.03;;
19257;SDS011;9763;48.780;9.212;2023-02-15T01:18:11;10.20;;;7.97;;
19257;SDS011;9763;48.780;9.212;2023-02-15T01:21:37;8.13;;;6.70;;
19257;SDS011;9763;48.780;9.212;2023-02-15T01:25:05;7.87;;;7.07;;
19257;SDS011;9763;48.780;9.212;2023-02-15T01:28:29;7.53;;;6.00;;
19257;SDS011;9763;48.780;9.212;2023-02-15T01:31:55;8.07;;;6.80;;
19257;SDS011;9763;48.780;9.212;2023-02-15T01:35:19;13.00;;;7.80;;
19257;SDS011;9763;48.780;9.212;2023-02-15T01:38:45;10.57;;;8.37;;
19257;SDS011;9763;48.780;9.212;2023-02-15T01:42:09;9.47;;;8.10;;
19257;SDS011;9763;48.780;9.212;2023-02-15T01:45:34;11.43;;;9.63;;
19257;SDS011;9763;48.780;9.212;2023-02-15T01:49:00;9.50;;;7.27;;
19257;SDS011;9763;48.780;9.212;2023-02-15T01:52:31;9.70;;;7.83;;
19257;SDS011;9763;48.780;9.212;2023-02-15T01:56:02;8.13;;;6.83;;
19257;SDS011;9763;48.780;9.212;2023-02-15T01:59:31;7.73;;;6.83;;
19257;SDS011;9763;48.780;9.212;2023-02-15T02:03:16;9.30;;;8.30;;
19257;SDS011;9763;48.780;9.212;2023-02-15T02:06:46;8.93;;;7.27;;
19257;SDS011;9763;48.780;9.212;2023-02-15T02:10:13;10.13;;;8.13;;
19257;SDS011;9763;48.780;9.212;2023-02-15T02:13:46;9.37;;;7.93;;
19257;SDS011;9763;48.780;9.212;2023-02-15T02:17:12;9.90;;;7.53;;
19257;SDS011;9763;48.780;9.212;2023-02-15T02:20:59;9.70;;;7.30;;
19257;SDS011;9763;48.780;9.212;2023-02-15T02:25:00;8.97;;;7.70;;
19257;SDS011;9763;48.780;9.212;2023-02-15T02:29:06;8.37;;;7.37;;
19257;SDS011;9763;48.780;9.212;2023-02-15T02:33:21;8.97;;;7.20;;
19257;SDS011;9763;48.780;9.212;2023-02-15T02:37:08;8.00;;;6.53;;
19257;SDS011;9763;48.780;9.212;2023-02-15T02:40:48;11.53;;;8.20;;
19257;SDS011;9763;48.780;9.212;2023-02-15T02:44:25;8.50;;;6.93;;
19257;SDS011;9763;48.780;9.212;2023-02-15T02:47:58;9.23;;;7.57;;
19257;SDS011;9763;48.780;9.212;2023-02-15T02:51:29;8.17;;;6.97;;
19257;SDS011;9763;48.780;9.212;2023-02-15T02:54:52;7.13;;;6.23;;
19257;SDS011;9763;48.780;9.212;2023-02-15T02:58:19;10.67;;;8.77;;
19257;SDS011;9763;48.780;9.212;2023-02-15T03:01:52;8.30;;;6.90;;
19257;SDS011;9763;48.780;9.212;2023-02-15T03:05:25;9.60;;;7.60;;
19257;SDS011;9763;48.780;9.212;2023-02-15T03:08:54;11.03;;;8.57;;
19257;SDS011;9763;48.780;9.212;2023-02-15T03:12:27;10.47;;;7.63;;
19257;SDS011;9763;48.780;9.212;2023-02-15T03:15:54;9.37;;;8.13;;
19257;SDS011;9763;48.780;9.212;2023-02-15T03:19:37;10.60;;;8.07;;
19257;SDS011;9763;48.780;9.212;2023-02-15T03:23:06;11.13;;;8.13;;
19257;SDS011;9763;48.780;9.212;2023-02-15T03:26:39;8.73;;;7.80;;
19257;SDS011;9763;48.780;9.212;2023-02-15T03:30:06;10.97;;;7.60;;
19257;SDS011;9763;48.780;9.212;2023-02-15T03:33:33;9.33;;;7.10;;
19257;SDS011;9763;48.780;9.212;2023-02-15T03:37:04;11.23;;;8.70;;
19257;SDS011;9763;48.780;9.212;2023-02-15T03:40:37;14.00;;;8.80;;
19257;SDS011;9763;48.780;9.212;2023-02-15T03:44:25;12.27;;;9.40;;
19257;SDS011;9763;48.780;9.212;2023-02-15T03:47:52;12.90;;;8.77;;
19257;SDS011;9763;48.780;9.212;2023-02-15T03:51:21;11.43;;;7.73;;
19257;SDS011;9763;48.780;9.212;2023-02-15T03:54:56;10.00;;;8.27;;
19257;SDS011;9763;48.780;9.212;2023-02-15T03:58:21;10.43;;;7.80;;
19257;SDS011;9763;48.780;9.212;2023-02-15T04:02:08;10.23;;;7.30;;
19257;SDS011;9763;48.780;9.212;2023-02-15T04:05:43;11.00;;;7.97;;
19257;SDS011;9763;48.780;9.212;2023-02-15T04:09:07;10.53;;;7.50;;
19257;SDS011;9763;48.780;9.212;2023-02-15T04:12:49;10.00;;;7.23;;
19257;SDS011;9763;48.780;9.212;2023-02-15T04:16:13;9.00;;;7.40;;
19257;SDS011;9763;48.780;9.212;2023-02-15T04:19:37;10.90;;;8.23;;
19257;SDS011;9763;48.780;9.212;2023-02-15T04:23:18;9.70;;;7.57;;
19257;SDS011;9763;48.780;9.212;2023-02-15T04:26:59;10.33;;;8.60;;
19257;SDS011;9763;48.780;9.212;2023-02-15T04:30:25;10.30;;;8.20;;
19257;SDS011;9763;48.780;9.212;2023-02-15T04:33:49;9.40;;;7.93;;
19257;SDS011;9763;48.780;9.212;2023-02-15T04:37:15;9.43;;;7.20;;
19257;SDS011;9763;48.780;9.212;2023-02-15T04:40:38;13.70;;;8.23;;
19257;SDS011;9763;48.780;9.212;2023-02-15T04:44:02;9.50;;;7.07;;
19257;SDS011;9763;48.780;9.212;2023-02-15T04:47:27;11.93;;;7.20;;
19257;SDS011;9763;48.780;9.212;2023-02-15T04:50:51;9.30;;;7.80;;
19257;SDS011;9763;48.780;9.212;2023-02-15T04:54:16;11.90;;;7.70;;
19257;SDS011;9763;48.780;9.212;2023-02-15T04:57:40;11.03;;;7.10;;
19257;SDS011;9763;48.780;9.212;2023-02-15T05:01:03;11.30;;;8.17;;
19257;SDS011;9763;48.780;9.212;2023-02-15T05:04:29;10.60;;;7.30;;
19257;SDS011;9763;48.780;9.212;2023-02-15T05:07:52;9.13;;;6.97;;
19257;SDS011;9763;48.780;9.212;2023-02-15T05:11:17;9.40;;;7.60;;
19257;SDS011;9763;48.780;9.212;2023-02-15T05:14:41;9.77;;;7.50;;
19257;SDS011;9763;48.780;9.212;2023-02-15T05:18:05;10.57;;;8.17;;
19257;SDS011;9763;48.780;9.212;2023-02-15T05:21:29;10.53;;;8.80;;
19257;SDS011;9763;48.780;9.212;2023-02-15T05:24:53;9.50;;;7.67;;
19257;SDS011;9763;48.780;9.212;2023-02-15T05:28:36;10.47;;;8.00;;
19257;SDS011;9763;48.780;9.212;2023-02-15T05:32:01;8.70;;;6.83;;
19257;SDS011;9763;48.780;9.212;2023-02-15T05:35:26;9.40;;;7.50;;
19257;SDS011;9763;48.780;9.212;2023-02-15T05:38:49;7.90;;;6.80;;
19257;SDS011;9763;48.780;9.212;2023-02-15T05:42:13;9.47;;;7.40;;
19257;SDS011;9763;48.780;9.212;2023-02-15T05:45:38;8.70;;;7.13;;
19257;SDS011;9763;48.780;9.212;2023-02-15T05:49:02;10.87;;;7.20;;
19257;SDS011;9763;48.780;9.212;2023-02-15T05:52:26;11.50;;;6.87;;
19257;SDS011;9763;48.780;9.212;2023-02-15T05:55:50;10.17;;;7.50;;
19257;SDS011;9763;48.780;9.212;2023-02-15T05:59:13;10.17;;;7.27;;
19257;SDS011;9763;48.780;9.212;2023-02-15T06:02:39;11.20;;;7.93;;
19257;SDS011;9763;48.780;9.212;2023-02-15T06:06:03;6.90;;;5.37;;
19257;SDS011;9763;48.780;9.212;2023-02-15T06:09:28;13.67;;;6.97;;
19257;SDS011;9763;48.780;9.212;2023-02-15T06:12:52;8.73;;;7.50;;
19257;SDS011;9763;48.780;9.212;2023-02-15T06:16:16;8.00;;;6.67;;
19257;SDS011;9763;48.780;9.212;2023-02-15T06:19:41;10.60;;;7.17;;
19257;SDS011;9763;48.780;9.212;2023-02-15T06:23:05;10.60;;;6.57;;
19257;SDS011;9763;48.780;9.212;2023-02-15T06:26:29;10.03;;;7.40;;
19257;SDS011;9763;48.780;9.212;2023-02-15T06:29:53;10.80;;;7.30;;
19257;SDS011;9763;48.780;9.212;2023-02-15T06:33:17;10.80;;;7.30;;
19257;SDS011;9763;48.780;9.212;2023-02-15T06:36:42;7.57;;;6.60;;
19257;SDS011;9763;48.780;9.212;2023-02-15T06:40:06;9.93;;;7.33;;
19257;SDS011;9763;48.780;9.212;2023-02-15T06:43:31;8.97;;;6.97;;
19257;SDS011;9763;48.780;9.212;2023-02-15T06:46:55;12.53;;;8.03;;
19257;SDS011;9763;48.780;9.212;2023-02-15T06:50:19;9.20;;;7.00;;
19257;SDS011;9763;48.780;9.212;2023-02-15T06:53:44;9.30;;;7.80;;
19257;SDS011;9763;48.780;9.212;2023-02-15T06:57:08;11.17;;;8.10;;
19257;SDS011;9763;48.780;9.212;2023-02-15T07:00:32;10.83;;;7.67;;
19257;SDS011;9763;48.780;9.212;2023-02-15T07:03:56;11.63;;;8.20;;
19257;SDS011;9763;48.780;9.212;2023-02-15T07:07:20;10.17;;;7.80;;
19257;SDS011;9763;48.780;9.212;2023-02-15T07:10:45;11.13;;;8.00;;
19257;SDS011;9763;48.780;9.212;2023-02-15T07:14:11;11.43;;;7.87;;
19257;SDS011;9763;48.780;9.212;2023-02-15T07:17:35;14.43;;;8.43;;
19257;SDS011;9763;48.780;9.212;2023-02-15T07:20:59;12.47;;;8.73;;
19257;SDS011;9763;48.780;9.212;2023-02-15T07:24:24;11.53;;;9.50;;
19257;SDS011;9763;48.780;9.212;2023-02-15T07:27:50;11.83;;;9.10;;
19257;SDS011;9763;48.780;9.212;2023-02-15T07:31:19;11.23;;;8.30;;
19257;SDS011;9763;48.780;9.212;2023-02-15T07:34:43;12.70;;;9.30;;
19257;SDS011;9763;48.780;9.212;2023-02-15T07:38:07;12.20;;;8.73;;
19257;SDS011;9763;48.780;9.212;2023-02-15T07:41:31;10.63;;;8.60;;
19257;SDS011;9763;48.780;9.212;2023-02-15T07:44:56;11.33;;;8.60;;
19257;SDS011;9763;48.780;9.212;2023-02-15T07:48:19;12.77;;;9.00;;
19257;SDS011;9763;48.780;9.212;2023-02-15T07:51:45;12.20;;;8.83;;
19257;SDS011;9763;48.780;9.212;2023-02-15T07:55:09;13.13;;;8.70;;
19257;SDS011;9763;48.780;9.212;2023-02-15T07:58:34;13.90;;;8.80;;
19257;SDS011;9763;48.780;9.212;2023-02-15T08:02:15;12.93;;;9.40;;
19257;SDS011;9763;48.780;9.212;2023-02-15T08:05:39;10.60;;;8.40;;
19257;SDS011;9763;48.780;9.212;2023-02-15T08:09:05;11.10;;;8.47;;
19257;SDS011;9763;48.780;9.212;2023-02-15T08:12:31;13.10;;;9.17;;
19257;SDS011;9763;48.780;9.212;2023-02-15T08:15:54;10.90;;;8.50;;
19257;SDS011;9763;48.780;9.212;2023-02-15T08:19:21;8.90;;;7.67;;
19257;SDS011;9763;48.780;9.212;2023-02-15T08:22:46;8.40;;;7.23;;
19257;SDS011;9763;48.780;9.212;2023-02-15T08:26:10;9.20;;;7.10;;
19257;SDS011;9763;48.780;9.212;2023-02-15T08:29:35;10.23;;;7.93;;
19257;SDS011;9763;48.780;9.212;2023-02-15T08:33:01;11.17;;;8.93;;
19257;SDS011;9763;48.780;9.212;2023-02-15T08:36:28;8.90;;;6.93;;
19257;SDS011;9763;48.780;9.212;2023-02-15T08:39:53;7.50;;;6.70;;
19257;SDS011;9763;48.780;9.212;2023-02-15T08:43:18;9.50;;;6.83;;
19257;SDS011;9763;48.780;9.212;2023-02-15T08:46:42;6.53;;;5.80;;
19257;SDS011;9763;48.780;9.212;2023-02-15T08:50:08;8.77;;;6.90;;
19257;SDS011;9763;48.780;9.212;2023-02-15T08:53:34;9.00;;;7.40;;
19257;SDS011;9763;48.780;9.212;2023-02-15T08:56:58;8.13;;;5.73;;
19257;SDS011;9763;48.780;9.212;2023-02-15T09:00:22;8.20;;;6.30;;
19257;SDS011;9763;48.780;9.212;2023-02-15T09:03:47;11.73;;;8.23;;
19257;SDS011;9763;48.780;9.212;2023-02-15T09:07:15;8.50;;;7.07;;
19257;SDS011;9763;48.780;9.212;2023-02-15T09:10:41;9.90;;;7.20;;
19257;SDS011;9763;48.780;9.212;2023-02-15T09:14:06;7.77;;;5.70;;
19257;SDS011;9763;48.780;9.212;2023-02-15T09:17:35;9.07;;;7.37;;
19257;SDS011;9763;48.780;9.212;2023-02-15T09:21:03;9.13;;;6.73;;
19257;SDS011;9763;48.780;9.212;2023-02-15T09:24:31;10.80;;;6.00;;
19257;SDS011;9763;48.780;9.212;2023-02-15T09:27:57;8.60;;;7.10;;
19257;SDS011;9763;48.780;9.212;2023-02-15T09:31:21;7.13;;;6.43;;
19257;SDS011;9763;48.780;9.212;2023-02-15T09:34:48;7.30;;;6.03;;
19257;SDS011;9763;48.780;9.212;2023-02-15T09:38:12;6.67;;;5.73;;
19257;SDS011;9763;48.780;9.212;2023-02-15T09:46:01;7.37;;;5.90;;
19257;SDS011;9763;48.780;9.212;2023-02-15T09:49:52;7.30;;;6.30;;
19257;SDS011;9763;48.780;9.212;2023-02-15T09:53:31;6.60;;;5.83;;
19257;SDS011;9763;48.780;9.212;2023-02-15T09:57:16;7.97;;;7.00;;
19257;SDS011;9763;48.780;9.212;2023-02-15T10:00:54;6.40;;;5.80;;
19257;SDS011;9763;48.780;9.212;2023-02-15T10:04:33;7.73;;;6.90;;
19257;SDS011;9763;48.780;9.212;2023-02-15T10:08:20;7.40;;;5.67;;
19257;SDS011;9763;48.780;9.212;2023-02-15T10:12:26;9.83;;;6.17;;
19257;SDS011;9763;48.780;9.212;2023-02-15T10:16:19;6.63;;;5.93;;
19257;SDS011;9763;48.780;9.212;2023-02-15T10:19:56;7.57;;;5.07;;
19257;SDS011;9763;48.780;9.212;2023-02-15T10:23:43;9.10;;;7.27;;
19257;SDS011;9763;48.780;9.212;2023-02-15T10:27:27;10.70;;;8.27;;
19257;SDS011;9763;48.780;9.212;2023-02-15T10:31:02;6.43;;;5.50;;
19257;SDS011;9763;48.780;9.212;2023-02-15T10:34:43;6.67;;;5.33;;
19257;SDS011;9763;48.780;9.212;2023-02-15T10:38:19;8.43;;;5.20;;
19257;SDS011;9763;48.780;9.212;2023-02-15T10:41:56;7.77;;;5.63;;
19257;SDS011;9763;48.780;9.212;2023-02-15T10:45:36;6.10;;;5.50;;
19257;SDS011;9763;48.780;9.212;2023-02-15T10:49:16;6.47;;;5.87;;
19257;SDS011;9763;48.780;9.212;2023-02-15T10:57:10;9.07;;;8.17;;
19257;SDS011;9763;48.780;9.212;2023-02-15T11:00:47;8.40;;;7.50;;
19257;SDS011;9763;48.780;9.212;2023-02-15T11:04:33;10.07;;;6.80;;
19257;SDS011;9763;48.780;9.212;2023-02-15T11:08:17;8.87;;;8.07;;
19257;SDS011;9763;48.780;9.212;2023-02-15T11:11:44;10.30;;;9.37;;
19257;SDS011;9763;48.780;9.212;2023-02-15T11:15:15;9.20;;;8.40;;
19257;SDS011;9763;48.780;9.212;2023-02-15T11:18:48;8.00;;;7.30;;
19257;SDS011;9763;48.780;9.212;2023-02-15T11:22:21;11.07;;;7.67;;
19257;SDS011;9763;48.780;9.212;2023-02-15T11:25:47;8.93;;;8.03;;
19257;SDS011;9763;48.780;9.212;2023-02-15T11:29:21;7.50;;;6.80;;
19257;SDS011;9763;48.780;9.212;2023-02-15T11:32:52;8.07;;;7.37;;
19257;SDS011;9763;48.780;9.212;2023-02-15T11:36:21;8.13;;;7.00;;
19257;SDS011;9763;48.780;9.212;2023-02-15T11:39:52;9.30;;;7.73;;
19257;SDS011;9763;48.780;9.212;2023-02-15T11:43:20;8.17;;;7.37;;
19257;SDS011;9763;48.780;9.212;2023-02-15T11:46:51;8.23;;;7.23;;
19257;SDS011;9763;48.780;9.212;2023-02-15T11:50:16;7.20;;;6.50;;
19257;SDS011;9763;48.780;9.212;2023-02-15T11:53:45;7.77;;;6.97;;
19257;SDS011;9763;48.780;9.212;2023-02-15T11:57:14;8.33;;;7.53;;
19257;SDS011;9763;48.780;9.212;2023-02-15T12:00:46;6.90;;;6.27;;
19257;SDS011;9763;48.780;9.212;2023-02-15T12:04:18;7.07;;;6.37;;
19257;SDS011;9763;48.780;9.212;2023-02-15T12:07:48;6.40;;;5.70;;
19257;SDS011;9763;48.780;9.212;2023-02-15T12:11:19;8.20;;;6.87;;
19257;SDS011;9763;48.780;9.212;2023-02-15T12:14:53;6.03;;;5.53;;
19257;SDS011;9763;48.780;9.212;2023-02-15T12:18:20;7.83;;;7.03;;
19257;SDS011;9763;48.780;9.212;2023-02-15T12:21:59;6.73;;;5.87;;
19257;SDS011;9763;48.780;9.212;2023-02-15T12:25:33;8.20;;;7.40;;
19257;SDS011;9763;48.780;9.212;2023-02-15T12:29:06;6.90;;;6.20;;
19257;SDS011;9763;48.780;9.212;2023-02-15T12:32:47;7.10;;;6.30;;
19257;SDS011;9763;48.780;9.212;2023-02-15T12:36:17;6.80;;;5.67;;
19257;SDS011;9763;48.780;9.212;2023-02-15T12:39:50;7.00;;;5.90;;
19257;SDS011;9763;48.780;9.212;2023-02-15T12:43:24;7.30;;;5.87;;
19257;SDS011;9763;48.780;9.212;2023-02-15T12:46:55;6.77;;;5.70;;
19257;SDS011;9763;48.780;9.212;2023-02-15T12:50:24;8.90;;;6.33;;
19257;SDS011;9763;48.780;9.212;2023-02-15T12:53:55;8.20;;;7.40;;
19257;SDS011;9763;48.780;9.212;2023-02-15T12:57:24;7.97;;;6.23;;
19257;SDS011;9763;48.780;9.212;2023-02-15T13:01:02;6.80;;;5.80;;
19257;SDS011;9763;48.780;9.212;2023-02-15T13:04:37;9.13;;;7.50;;
19257;SDS011;9763;48.780;9.212;2023-02-15T13:08:14;6.70;;;6.00;;
19257;SDS011;9763;48.780;9.212;2023-02-15T13:11:42;9.13;;;5.53;;
19257;SDS011;9763;48.780;9.212;2023-02-15T13:15:22;5.77;;;5.27;;
19257;SDS011;9763;48.780;9.212;2023-02-15T13:18:52;7.77;;;5.87;;
19257;SDS011;9763;48.780;9.212;2023-02-15T13:22:18;7.67;;;6.40;;
19257;SDS011;9763;48.780;9.212;2023-02-15T13:25:48;7.00;;;5.50;;
19257;SDS011;9763;48.780;9.212;2023-02-15T13:29:15;10.13;;;5.57;;
19257;SDS011;9763;48.780;9.212;2023-02-15T13:32:46;5.90;;;5.23;;
19257;SDS011;9763;48.780;9.212;2023-02-15T13:36:20;8.40;;;6.00;;
19257;SDS011;9763;48.780;9.212;2023-02-15T13:39:51;5.50;;;4.57;;
19257;SDS011;9763;48.780;9.212;2023-02-15T13:43:33;5.33;;;4.40;;
19257;SDS011;9763;48.780;9.212;2023-02-15T13:47:16;7.50;;;5.27;;
19257;SDS011;9763;48.780;9.212;2023-02-15T13:50:51;6.10;;;5.10;;
19257;SDS011;9763;48.780;9.212;2023-02-15T13:54:36;6.67;;;5.97;;
19257;SDS011;9763;48.780;9.212;2023-02-15T14:02:42;6.67;;;5.60;;
19257;SDS011;9763;48.780;9.212;2023-02-15T14:06:50;5.93;;;5.33;;
19257;SDS011;9763;48.780;9.212;2023-02-15T14:10:49;5.73;;;5.07;;
19257;SDS011;9763;48.780;9.212;2023-02-15T14:14:34;5.50;;;4.90;;
19257;SDS011;9763;48.780;9.212;2023-02-15T14:18:22;6.27;;;5.07;;
19257;SDS011;9763;48.780;9.212;2023-02-15T14:21:59;5.80;;;5.07;;
19257;SDS011;9763;48.780;9.212;2023-02-15T14:25:35;5.30;;;4.27;;
19257;SDS011;9763;48.780;9.212;2023-02-15T14:29:11;5.63;;;4.87;;
19257;SDS011;9763;48.780;9.212;2023-02-15T14:32:51;6.37;;;5.00;;
19257;SDS011;9763;48.780;9.212;2023-02-15T14:36:20;7.50;;;5.00;;
19257;SDS011;9763;48.780;9.212;2023-02-15T14:39:47;5.50;;;4.87;;
19257;SDS011;9763;48.780;9.212;2023-02-15T14:43:41;8.97;;;5.40;;
19257;SDS011;9763;48.780;9.212;2023-02-15T14:47:15;6.03;;;5.47;;
19257;SDS011;9763;48.780;9.212;2023-02-15T14:50:47;8.57;;;6.10;;
19257;SDS011;9763;48.780;9.212;2023-02-15T14:54:52;6.57;;;5.30;;
19257;SDS011;9763;48.780;9.212;2023-02-15T14:58:23;6.67;;;5.53;;
19257;SDS011;9763;48.780;9.212;2023-02-15T15:01:51;4.97;;;4.10;;
19257;SDS011;9763;48.780;9.212;2023-02-15T15:05:21;9.97;;;5.50;;
19257;SDS011;9763;48.780;9.212;2023-02-15T15:08:58;8.03;;;5.90;;
19257;SDS011;9763;48.780;9.212;2023-02-15T15:12:38;5.73;;;4.70;;
19257;SDS011;9763;48.780;9.212;2023-02-15T15:20:13;5.83;;;4.57;;
19257;SDS011;9763;48.780;9.212;2023-02-15T15:24:07;4.90;;;4.40;;
19257;SDS011;9763;48.780;9.212;2023-02-15T15:27:47;5.60;;;4.67;;
19257;SDS011;9763;48.780;9.212;2023-02-15T15:31:16;5.03;;;4.37;;
19257;SDS011;9763;48.780;9.212;2023-02-15T15:34:52;6.43;;;4.73;;
19257;SDS011;9763;48.780;9.212;2023-02-15T15:38:41;4.93;;;4.43;;
19257;SDS011;9763;48.780;9.212;2023-02-15T15:42:29;5.40;;;4.80;;
19257;SDS011;9763;48.780;9.212;2023-02-15T15:46:13;8.20;;;6.60;;
19257;SDS011;9763;48.780;9.212;2023-02-15T15:50:11;7.63;;;6.00;;
19257;SDS011;9763;48.780;9.212;2023-02-15T15:53:40;6.03;;;5.40;;
19257;SDS011;9763;48.780;9.212;2023-02-15T15:57:14;6.53;;;5.07;;
19257;SDS011;9763;48.780;9.212;2023-02-15T16:00:46;5.37;;;4.70;;
19257;SDS011;9763;48.780;9.212;2023-02-15T16:04:14;6.27;;;5.10;;
19257;SDS011;9763;48.780;9.212;2023-02-15T16:07:48;6.03;;;4.90;;
19257;SDS011;9763;48.780;9.212;2023-02-15T16:11:15;6.10;;;4.80;;
19257;SDS011;9763;48.780;9.212;2023-02-15T16:14:45;4.50;;;4.10;;
19257;SDS011;9763;48.780;9.212;2023-02-15T16:18:13;7.20;;;4.93;;
19257;SDS011;9763;48.780;9.212;2023-02-15T16:21:41;5.57;;;5.07;;
19257;SDS011;9763;48.780;9.212;2023-02-15T16:25:16;5.40;;;4.90;;
19257;SDS011;9763;48.780;9.212;2023-02-15T16:28:56;5.13;;;4.57;;
19257;SDS011;9763;48.780;9.212;2023-02-15T16:32:23;5.47;;;4.97;;
19257;SDS011;9763;48.780;9.212;2023-02-15T16:35:53;5.93;;;4.90;;
19257;SDS011;9763;48.780;9.212;2023-02-15T16:39:19;9.70;;;5.07;;
19257;SDS011;9763;48.780;9.212;2023-02-15T16:42:43;6.10;;;5.50;;
19257;SDS011;9763;48.780;9.212;2023-02-15T16:46:10;7.27;;;5.40;;
19257;SDS011;9763;48.780;9.212;2023-02-15T16:49:48;8.50;;;5.00;;
19257;SDS011;9763;48.780;9.212;2023-02-15T16:53:17;6.80;;;5.17;;
19257;SDS011;9763;48.780;9.212;2023-02-15T16:56:45;8.87;;;5.87;;
19257;SDS011;9763;48.780;9.212;2023-02-15T17:00:17;6.43;;;5.60;;
19257;SDS011;9763;48.780;9.212;2023-02-15T17:03:46;6.00;;;4.80;;
19257;SDS011;9763;48.780;9.212;2023-02-15T17:07:15;6.00;;;5.40;;
19257;SDS011;9763;48.780;9.212;2023-02-15T17:10:42;6.73;;;5.60;;
19257;SDS011;9763;48.780;9.212;2023-02-15T17:14:27;5.10;;;4.60;;
19257;SDS011;9763;48.780;9.212;2023-02-15T17:17:54;6.00;;;5.17;;
19257;SDS011;9763;48.780;9.212;2023-02-15T17:21:25;5.83;;;5.23;;
19257;SDS011;9763;48.780;9.212;2023-02-15T17:24:57;6.83;;;5.27;;
19257;SDS011;9763;48.780;9.212;2023-02-15T17:28:25;6.10;;;5.33;;
19257;SDS011;9763;48.780;9.212;2023-02-15T17:31:51;9.70;;;5.30;;
19257;SDS011;9763;48.780;9.212;2023-02-15T17:35:19;5.73;;;5.13;;
19257;SDS011;9763;48.780;9.212;2023-02-15T17:39:00;6.77;;;5.43;;
19257;SDS011;9763;48.780;9.212;2023-02-15T17:42:33;6.23;;;5.40;;
19257;SDS011;9763;48.780;9.212;2023-02-15T17:45:56;6.30;;;5.40;;
19257;SDS011;9763;48.780;9.212;2023-02-15T17:49:22;6.20;;;5.30;;
19257;SDS011;9763;48.780;9.212;2023-02-15T17:52:50;8.30;;;5.23;;
19257;SDS011;9763;48.780;9.212;2023-02-15T17:56:16;7.90;;;5.67;;
19257;SDS011;9763;48.780;9.212;2023-02-15T17:59:40;6.77;;;5.60;;
19257;SDS011;9763;48.780;9.212;2023-02-15T18:03:23;6.57;;;5.57;;
19257;SDS011;9763;48.780;9.212;2023-02-15T18:07:09;5.10;;;4.40;;
19257;SDS011;9763;48.780;9.212;2023-02-15T18:10:52;11.70;;;6.23;;
19257;SDS011;9763;48.780;9.212;2023-02-15T18:14:35;6.70;;;5.77;;
19257;SDS011;9763;48.780;9.212;2023-02-15T18:17:59;7.00;;;5.40;;
19257;SDS011;9763;48.780;9.212;2023-02-15T18:21:24;6.40;;;5.47;;
19257;SDS011;9763;48.780;9.212;2023-02-15T18:24:48;8.03;;;5.70;;
19257;SDS011;9763;48.780;9.212;2023-02-15T18:28:12;7.37;;;6.20;;
19257;SDS011;9763;48.780;9.212;2023-02-15T18:31:37;7.63;;;6.63;;
19257;SDS011;9763;48.780;9.212;2023-02-15T18:35:02;6.33;;;5.70;;
19257;SDS011;9763;48.780;9.212;2023-02-15T18:38:27;9.90;;;6.00;;
19257;SDS011;9763;48.780;9.212;2023-02-15T18:41:51;6.47;;;5.43;;
19257;SDS011;9763;48.780;9.212;2023-02-15T18:45:16;7.70;;;6.40;;
19257;SDS011;9763;48.780;9.212;2023-02-15T18:48:45;8.30;;;7.23;;
19257;SDS011;9763;48.780;9.212;2023-02-15T18:52:12;6.80;;;5.57;;
19257;SDS011;9763;48.780;9.212;2023-02-15T18:55:38;8.83;;;7.00;;
19257;SDS011;9763;48.780;9.212;2023-02-15T18:59:03;10.13;;;8.23;;
19257;SDS011;9763;48.780;9.212;2023-02-15T19:02:26;8.97;;;7.37;;
19257;SDS011;9763;48.780;9.212;2023-02-15T19:05:51;9.70;;;6.77;;
19257;SDS011;9763;48.780;9.212;2023-02-15T19:09:17;6.10;;;5.50;;
19257;SDS011;9763;48.780;9.212;2023-02-15T19:12:44;9.33;;;6.07;;
19257;SDS011;9763;48.780;9.212;2023-02-15T19:16:13;7.70;;;6.10;;
19257;SDS011;9763;48.780;9.212;2023-02-15T19:19:51;8.10;;;6.37;;
19257;SDS011;9763;48.780;9.212;2023-02-15T19:23:16;6.90;;;6.20;;
19257;SDS011;9763;48.780;9.212;2023-02-15T19:26:44;9.17;;;5.70;;
19257;SDS011;9763;48.780;9.212;2023-02-15T19:30:11;6.97;;;5.73;;
19257;SDS011;9763;48.780;9.212;2023-02-15T19:33:39;7.67;;;6.27;;
19257;SDS011;9763;48.780;9.212;2023-02-15T19:37:03;6.37;;;5.50;;
19257;SDS011;9763;48.780;9.212;2023-02-15T19:40:31;6.80;;;5.70;;
19257;SDS011;9763;48.780;9.212;2023-02-15T19:43:57;9.20;;;7.10;;
19257;SDS011;9763;48.780;9.212;2023-02-15T19:47:22;7.30;;;6.60;;
19257;SDS011;9763;48.780;9.212;2023-02-15T19:50:46;7.57;;;6.17;;
19257;SDS011;9763;48.780;9.212;2023-02-15T19:54:25;8.73;;;6.50;;
19257;SDS011;9763;48.780;9.212;2023-02-15T19:57:54;9.10;;;7.50;;
19257;SDS011;9763;48.780;9.212;2023-02-15T20:01:19;13.63;;;8.40;;
19257;SDS011;9763;48.780;9.212;2023-02-15T20:04:43;7.60;;;6.30;;
19257;SDS011;9763;48.780;9.212;2023-02-15T20:08:10;6.43;;;5.60;;
19257;SDS011;9763;48.780;9.212;2023-02-15T20:11:39;9.47;;;6.63;;
19257;SDS011;9763;48.780;9.212;2023-02-15T20:15:07;8.57;;;5.63;;
19257;SDS011;9763;48.780;9.212;2023-02-15T20:18:41;7.30;;;6.30;;
19257;SDS011;9763;48.780;9.212;2023-02-15T20:22:09;14.13;;;9.73;;
19257;SDS011;9763;48.780;9.212;2023-02-15T20:25:44;9.67;;;6.73;;
19257;SDS011;9763;48.780;9.212;2023-02-15T20:29:10;10.17;;;7.17;;
19257;SDS011;9763;48.780;9.212;2023-02-15T20:32:37;9.40;;;7.63;;
19257;SDS011;9763;48.780;9.212;2023-02-15T20:36:00;10.27;;;7.67;;
19257;SDS011;9763;48.780;9.212;2023-02-15T20:39:25;7.77;;;6.30;;
19257;SDS011;9763;48.780;9.212;2023-02-15T20:42:49;9.43;;;7.23;;
19257;SDS011;9763;48.780;9.212;2023-02-15T20:46:13;8.70;;;6.23;;
19257;SDS011;9763;48.780;9.212;2023-02-15T20:49:38;7.40;;;6.07;;
19257;SDS011;9763;48.780;9.212;2023-02-15T20:53:02;8.10;;;6.70;;
19257;SDS011;9763;48.780;9.212;2023-02-15T20:56:31;8.40;;;6.67;;
19257;SDS011;9763;48.780;9.212;2023-02-15T20:59:55;8.50;;;6.83;;
19257;SDS011;9763;48.780;9.212;2023-02-15T21:03:20;10.30;;;8.03;;
19257;SDS011;9763;48.780;9.212;2023-02-15T21:06:48;7.60;;;6.50;;
19257;SDS011;9763;48.780;9.212;2023-02-15T21:10:16;8.90;;;6.80;;
19257;SDS011;9763;48.780;9.212;2023-02-15T21:13:43;6.43;;;5.80;;
19257;SDS011;9763;48.780;9.212;2023-02-15T21:17:09;8.63;;;7.03;;
19257;SDS011;9763;48.780;9.212;2023-02-15T21:20:34;7.37;;;6.03;;
19257;SDS011;9763;48.780;9.212;2023-02-15T21:24:03;8.27;;;6.27;;
19257;SDS011;9763;48.780;9.212;2023-02-15T21:27:27;9.27;;;7.60;;
19257;SDS011;9763;48.780;9.212;2023-02-15T21:30:50;9.90;;;6.97;;
19257;SDS011;9763;48.780;9.212;2023-02-15T21:34:16;7.17;;;5.90;;
19257;SDS011;9763;48.780;9.212;2023-02-15T21:37:40;6.67;;;5.93;;
19257;SDS011;9763;48.780;9.212;2023-02-15T21:41:09;9.07;;;6.40;;